Latest Coastal Weather Observations for Hopetoun North

IDW60701

Issued at 5:02 am WST Sunday 24 July 2016 (issued every 10 minutes, with the page automatically refreshed every 10 minutes)

About coastal observations | Map of coastal stations | Coastal observations for WA | Marine services | Other Formats
Station Details ID: 009961 Name: HOPETOUN NORTH Lat: -33.93 Lon: 120.13 Height: 26.0 m
Data from the previous 72 hours. | See also: Recent months at Hopetoun North
Date/Time
WST
Temp
°C
Wind Pressure Rain since
9am
mm
Weather Cloud Vis
km
Sea
Height
m
Swell
Dir  Spd
kts
Gust
kts
hPa Trend Height
m
Period
s
Dir
24/05:00am - WNW 6 11 1023.5 - 2.8 - - - - - - -
24/04:30am - W 10 14 1023.4 - 2.8 - - - - - - -
24/04:00am - W 9 13 1023.3 - 2.8 - - - - - - -
24/03:30am - W 9 13 1023.1 - 2.8 - - - - - - -
24/03:00am - W 7 12 1023.3 - 2.8 - - - - - - -
24/02:30am - W 9 14 1023.2 - 2.8 - - - - - - -
24/02:00am - W 9 13 1023.2 - 2.8 - - - - - - -
24/01:30am - W 10 15 1023.2 - 2.8 - - - - - - -
24/01:00am - W 10 15 1023.1 - 2.8 - - - - - - -
24/12:30am - W 11 16 1023.1 - 2.8 - - - - - - -
24/12:00am - W 12 17 1023.0 - 2.8 Recent precip. - - - - - -
 
Date/Time
WST
Temp
°C
Wind Pressure Rain since
9am
mm
Weather Cloud Vis
km
Sea
Height
m
Swell
Dir  Spd
kts
Gust
kts
hPa Trend Height
m
Period
s
Dir
23/11:30pm - WNW 9 15 1023.0 - 2.8 - - - - - - -
23/11:00pm - WNW 7 9 1023.2 - 2.6 - - - - - - -
23/10:30pm - W 10 14 1023.0 - 2.6 - - - - - - -
23/10:00pm - W 8 13 1022.7 - 2.6 - - - - - - -
23/09:30pm - W 12 19 1022.6 - 2.4 - - - - - - -
23/09:00pm - W 8 12 1022.4 - 2.4 Recent precip. - - - - - -
23/08:30pm - WNW 8 13 1022.2 - 2.2 - - - - - - -
23/08:00pm - W 13 30 1022.1 - 1.8 - - - - - - -
23/07:32pm - WSW 15 25 1021.6 - 1.4 - - - - - - -
23/07:30pm - WSW 17 25 1021.7 - 1.4 - - - - - - -
23/07:00pm - SW 19 32 1021.3 - 1.2 - - - - - - -
23/06:30pm - SW 18 29 1021.0 - 1.2 - - - - - - -
23/06:23pm - SW 18 29 1020.9 - 1.2 - - - - - - -
23/06:22pm - SW 18 27 1020.9 - 1.2 - - - - - - -
23/06:00pm - WSW 13 20 1020.6 - 1.0 Rain - - - - - -
23/05:30pm - SW 21 31 1020.2 - 0.8 - - - - - - -
23/05:21pm - SW 16 27 1019.9 - 0.8 - - - - - - -
23/05:00pm - WSW 18 26 1019.7 - 0.8 - - - - - - -
23/04:30pm - SW 18 29 1019.5 - 0.6 - - - - - - -
23/04:17pm - WSW 20 33 1019.3 - 0.4 - - - - - - -
23/04:00pm - WSW 19 28 1019.1 - 0.4 - - - - - - -
23/03:34pm - SW 19 29 1018.7 - 0.4 - - - - - - -
23/03:30pm - SW 18 27 1018.7 - 0.4 - - - - - - -
23/03:03pm - WSW 19 32 1018.6 - 0.2 - - - - - - -
23/03:00pm - WSW 19 26 1018.5 - 0.2 - - - - - - -
23/02:30pm - WSW 19 29 1018.1 - 0.2 - - - - - - -
23/02:05pm - WSW 20 30 1017.9 - 0.2 - - - - - - -
23/02:00pm - WSW 20 28 1017.6 - 0.2 - - - - - - -
23/01:30pm - WSW 16 27 1017.5 - 0.0 - - - - - - -
23/01:00pm - W 20 31 1017.7 - 0.0 - - - - - - -
23/12:30pm - W 20 30 1017.7 - 0.0 - - - - - - -
23/12:00pm - W 17 28 1017.5 - 0.0 - - - - - - -
23/11:54am - W 17 28 1017.5 - 0.0 - - - - - - -
23/11:30am - W 18 26 1017.7 - 0.0 - - - - - - -
23/11:00am - W 16 23 1018.0 - 0.0 - - - - - - -
23/10:50am - W 15 26 1018.1 - 0.0 - - - - - - -
23/10:30am - WNW 14 23 1018.2 - 0.0 - - - - - - -
23/10:00am - WNW 13 19 1018.2 - 0.0 - - - - - - -
23/09:30am - NW 11 19 1018.4 - 0.0 - - - - - - -
23/09:00am - WNW 12 17 1019.0 - 7.2 - - - - - - -
23/08:30am - WNW 12 18 1019.1 - 7.2 - - - - - - -
23/08:00am - WNW 10 16 1019.4 - 7.2 - - - - - - -
23/07:30am - WNW 7 10 1019.7 - 7.2 - - - - - - -
23/07:00am - NW 6 9 1019.7 - 7.2 - - - - - - -
23/06:30am - NNW 5 7 1019.7 - 7.2 - - - - - - -
23/06:00am - WNW 8 12 1019.9 - 7.2 - - - - - - -
23/05:30am - WNW 9 13 1020.2 - 7.2 - - - - - - -
23/05:00am - WNW 10 14 1020.3 - 7.2 - - - - - - -
23/04:30am - WNW 8 12 1020.2 - 7.2 - - - - - - -
23/04:00am - WNW 7 12 1020.4 - 7.2 - - - - - - -
23/03:30am - NW 8 14 1020.7 - 7.2 - - - - - - -
23/03:00am - NW 8 12 1020.8 - 7.2 - - - - - - -
23/02:30am - NW 7 10 1020.8 - 7.2 - - - - - - -
23/02:00am - NW 5 7 1021.0 - 7.2 - - - - - - -
23/01:30am - NW 8 13 1021.1 - 7.2 - - - - - - -
23/01:00am - NNW 5 6 1021.0 - 7.2 - - - - - - -
23/12:30am - NW 6 8 1021.2 - 7.2 - - - - - - -
23/12:00am - WNW 7 9 1021.5 - 7.2 - - - - - - -
 
Date/Time
WST
Temp
°C
Wind Pressure Rain since
9am
mm
Weather Cloud Vis
km
Sea
Height
m
Swell
Dir  Spd
kts
Gust
kts
hPa Trend Height
m
Period
s
Dir
22/11:30pm - NW 6 7 1021.6 - 7.2 - - - - - - -
22/11:00pm - NW 6 7 1021.8 - 7.2 - - - - - - -
22/10:30pm - NW 7 9 1022.1 - 7.2 - - - - - - -
22/10:00pm - NW 6 9 1022.5 - 7.2 - - - - - - -
22/09:30pm - NNW 4 6 1022.4 - 7.2 - - - - - - -
22/09:00pm - NNW 4 5 1022.6 - 7.2 Recent precip. - - - - - -
22/08:30pm - W 4 6 1022.7 - 7.2 - - - - - - -
22/08:00pm - NNW 3 5 1022.6 - 5.6 - - - - - - -
22/07:30pm - W 3 5 1022.5 - 5.6 - - - - - - -
22/07:00pm - WNW 7 11 1022.3 - 4.8 - - - - - - -
22/06:30pm - WSW 8 12 1022.1 - 4.2 - - - - - - -
22/06:00pm - SW 10 15 1021.8 - 4.2 Recent precip. - - - - - -
22/05:30pm - SW 10 15 1021.7 - 4.2 - - - - - - -
22/05:00pm - SW 12 23 1021.6 - 4.0 - - - - - - -
22/04:30pm - SW 12 17 1021.4 - 2.8 - - - - - - -
22/04:00pm - SW 9 15 1021.3 - 2.8 - - - - - - -
22/03:30pm - WSW 12 17 1021.1 - 2.8 - - - - - - -
22/03:00pm - WSW 10 15 1021.0 - 2.6 - - - - - - -
22/02:30pm - SW 16 22 1021.0 - 2.6 - - - - - - -
22/02:00pm - SW 11 17 1020.6 - 2.6 - - - - - - -
22/01:30pm - WSW 15 23 1020.5 - 2.4 - - - - - - -
22/01:00pm - WSW 14 21 1020.2 - 2.4 - - - - - - -
22/12:47pm - WSW 15 26 1020.2 - 2.4 - - - - - - -
22/12:30pm - W 11 16 1020.3 - 2.4 - - - - - - -
22/12:00pm - W 12 19 1020.2 - 2.4 Recent precip. - - - - - -
22/11:30am - W 8 16 1020.3 - 1.8 - - - - - - -
22/11:00am - W 8 13 1020.4 - 1.2 - - - - - - -
22/10:30am - WSW 12 18 1020.3 - 0.6 - - - - - - -
22/10:00am - WSW 13 20 1020.0 - 0.2 - - - - - - -
22/09:30am - W 14 25 1019.5 - 0.2 - - - - - - -
22/09:00am - W 11 19 1018.7 - 2.8 - - - - - - -
22/08:30am - W 11 17 1018.0 - 2.8 - - - - - - -
22/08:00am - WNW 11 16 1017.5 - 2.8 - - - - - - -
22/07:41am - WSW 15 26 1017.1 - 2.6 - - - - - - -
22/07:30am - WSW 14 23 1016.9 - 2.6 - - - - - - -
22/07:00am - W 13 21 1016.5 - 2.0 - - - - - - -
22/06:30am - W 12 18 1015.7 - 2.0 - - - - - - -
22/06:00am - W 12 18 1015.5 - 2.0 Rain - - - - - -
22/05:30am - W 14 23 1015.0 - 1.8 - - - - - - -
22/05:00am - W 15 22 1014.7 - 1.4 - - - - - - -
22/04:30am - W 15 23 1014.2 - 1.2 - - - - - - -
22/04:00am - WSW 16 24 1014.0 - 1.0 - - - - - - -
22/03:47am - W 18 28 1013.6 - 0.4 - - - - - - -
22/03:30am - W 18 27 1013.4 - 0.4 - - - - - - -
22/03:10am - WSW 19 31 1013.1 - 0.0 - - - - - - -
22/03:06am - WSW 15 27 1013.0 - 0.0 - - - - - - -
22/03:00am - W 12 17 1013.0 - 0.0 - - - - - - -
22/02:52am - WSW 15 25 1012.8 - 0.0 - - - - - - -
22/02:30am - W 16 25 1012.5 - 0.0 - - - - - - -
22/02:00am - W 18 27 1011.9 - 0.0 - - - - - - -
22/01:38am - W 17 28 1011.5 - 0.0 - - - - - - -
22/01:30am - W 17 24 1011.4 - 0.0 - - - - - - -
22/01:02am - W 16 26 1010.9 - 0.0 - - - - - - -
22/01:00am - W 17 26 1010.9 - 0.0 - - - - - - -
22/12:50am - W 16 26 1010.8 - 0.0 - - - - - - -
22/12:30am - W 17 24 1010.5 - 0.0 - - - - - - -
22/12:00am - W 17 27 1009.9 - 0.0 - - - - - - -
 
Date/Time
WST
Temp
°C
Wind Pressure Rain since
9am
mm
Weather Cloud Vis
km
Sea
Height
m
Swell
Dir  Spd
kts
Gust
kts
hPa Trend Height
m
Period
s
Dir
21/11:30pm - W 15 29 1009.4 - 0.0 - - - - - - -
21/11:03pm - WNW 15 32 1009.1 - 0.0 - - - - - - -
21/11:00pm - WNW 13 23 1009.0 - 0.0 - - - - - - -
21/10:30pm - W 17 27 1009.0 - 0.0 - - - - - - -
21/10:02pm - WNW 17 31 1008.5 - 0.0 - - - - - - -
21/10:00pm - WNW 16 24 1008.5 - 0.0 - - - - - - -
21/09:30pm - WNW 18 28 1008.2 - 0.0 - - - - - - -
21/09:04pm - WNW 16 27 1007.9 - 0.0 - - - - - - -
21/09:00pm - WNW 17 25 1007.8 - 0.0 - - - - - - -
21/08:30pm - WNW 15 25 1007.6 - 0.0 - - - - - - -
21/08:00pm - NW 17 31 1007.5 - 0.0 - - - - - - -
21/07:32pm - NW 15 26 1007.4 - 0.0 - - - - - - -
21/07:30pm - NW 14 23 1007.4 - 0.0 - - - - - - -
21/07:00pm - NW 15 23 1007.5 - 0.0 - - - - - - -
21/06:41pm - WNW 16 26 1007.3 - 0.0 - - - - - - -
21/06:30pm - NW 11 18 1007.0 - 0.0 - - - - - - -
21/06:00pm - WNW 8 14 1007.0 - 0.0 - - - - - - -
21/05:30pm - WNW 7 10 1007.0 - 0.0 - - - - - - -
21/05:00pm - WNW 11 17 1006.8 - 0.0 - - - - - - -
21/04:30pm - WNW 13 22 1006.5 - 0.0 - - - - - - -
21/04:00pm - W 15 21 1006.6 - 0.0 - - - - - - -
21/03:30pm - W 16 25 1006.6 - 0.0 - - - - - - -
21/03:20pm - W 15 26 1006.5 - 0.0 - - - - - - -
21/03:00pm - W 13 19 1006.4 - 0.0 - - - - - - -
21/02:30pm - W 15 25 1006.3 - 0.0 - - - - - - -
21/02:00pm - W 18 27 1006.1 - 0.0 - - - - - - -
21/01:46pm - W 16 27 1006.0 - 0.0 - - - - - - -
21/01:30pm - W 15 22 1006.0 - 0.0 - - - - - - -
21/01:00pm - W 12 19 1005.7 - 0.0 - - - - - - -
21/12:30pm - W 13 19 1005.8 - 0.0 - - - - - - -
21/12:00pm - W 12 19 1006.4 - 0.0 - - - - - - -
21/11:30am - W 14 19 1006.3 - 0.0 - - - - - - -
21/11:00am - W 12 18 1006.2 - 0.0 - - - - - - -
21/10:30am - W 15 22 1006.5 - 0.0 - - - - - - -
21/10:00am - W 15 23 1006.3 - 0.0 - - - - - - -
21/09:30am - WNW 13 20 1005.9 - 0.0 - - - - - - -
21/09:00am - NW 12 20 1005.9 - 0.0 - - - - - - -
21/08:30am - NW 12 19 1005.3 - 0.0 - - - - - - -
21/08:00am - NW 9 15 1005.2 - 0.0 - - - - - - -
21/07:30am - NW 9 20 1005.4 - 0.0 - - - - - - -
21/07:00am - NE 4 5 1005.2 - 0.0 - - - - - - -
21/06:30am - NNE 5 8 1005.1 - 0.0 - - - - - - -
21/06:00am - NNE 6 9 1005.3 - 0.0 - - - - - - -
21/05:30am - NNE 4 7 1005.3 - 0.0 - - - - - - -

Other Formats:

Comma delimited format used in spreadsheet applications
http://www.bom.gov.au/fwo/IDW60701/IDW60701.95635.axf

JavaScript Object Notation format (JSON) in row-major order
http://www.bom.gov.au/fwo/IDW60701/IDW60701.95635.json